Time;durP1;ratioP1;P1;durP2;ratioP2;P2;SDS_P1;SDS_P2;PMS_P1;PMS_P2;Temp;Humidity;BMP_temperature;BMP_pressure;BME280_temperature;BME280_humidity;BME280_pressure;Samples;Min_cycle;Max_cycle;Signal;HPM_P1;HPM_P2
2024/03/27 00:00:44;;;;;;;;;;;7.40;77.20;;;;;;5038944;27;87262;-47
2024/03/27 00:03:09;;;;;;;;;;;7.50;77.30;;;;;;5044985;28;86878;-47
2024/03/27 00:05:36;;;;;;;;;;;7.40;77.20;;;;;;5044389;28;87498;-45
2024/03/27 00:08:02;;;;;;;;;;;7.40;77.20;;;;;;5044874;27;86891;-47
2024/03/27 00:10:27;;;;;;;;;;;7.50;77.30;;;;;;5043939;27;87812;-47
2024/03/27 00:12:53;;;;;;;;;;;7.40;77.30;;;;;;5044359;27;86621;-48
2024/03/27 00:15:19;;;;;;;;;;;7.40;77.30;;;;;;5044282;27;87050;-46
2024/03/27 00:17:45;;;;;;;;;;;7.40;77.30;;;;;;5044095;27;87369;-47
2024/03/27 00:20:10;;;;;;;;;;;7.40;77.30;;;;;;5044461;28;88422;-46
2024/03/27 00:22:36;;;;;;;;;;;7.40;77.40;;;;;;5044327;28;87862;-46
2024/03/27 00:25:03;;;;;;;;;;;7.40;77.40;;;;;;5043279;28;88861;-47
2024/03/27 00:27:29;;;;;;;;;;;7.40;77.30;;;;;;5043597;27;86881;-47
2024/03/27 00:29:55;;;;;;;;;;;7.40;77.30;;;;;;5043704;27;87074;-46
2024/03/27 00:32:20;;;;;;;;;;;7.40;77.40;;;;;;5041473;28;88496;-47
2024/03/27 00:34:46;;;;;;;;;;;7.40;77.30;;;;;;5043998;28;87452;-48
2024/03/27 00:37:12;;;;;;;;;;;7.40;77.50;;;;;;5043902;27;88292;-47
2024/03/27 00:39:37;;;;;;;;;;;7.40;77.50;;;;;;5042931;28;87403;-45
2024/03/27 00:42:04;;;;;;;;;;;7.40;77.40;;;;;;5046181;28;87073;-46
2024/03/27 00:44:29;;;;;;;;;;;7.40;77.40;;;;;;5039229;28;89445;-46
2024/03/27 00:46:55;;;;;;;;;;;7.40;77.50;;;;;;5042930;28;86989;-47
2024/03/27 00:49:21;;;;;;;;;;;7.40;77.40;;;;;;5043695;28;87723;-47
2024/03/27 00:51:46;;;;;;;;;;;7.40;77.40;;;;;;5043240;28;87733;-47
2024/03/27 00:54:12;;;;;;;;;;;7.40;77.40;;;;;;5042382;28;87088;-46
2024/03/27 00:56:38;;;;;;;;;;;7.40;77.40;;;;;;5038797;28;87987;-46
2024/03/27 00:59:03;;;;;;;;;;;7.40;77.50;;;;;;5042651;28;88145;-47
2024/03/27 01:01:30;;;;;;;;;;;7.40;77.50;;;;;;5044600;27;86520;-46
2024/03/27 01:03:55;;;;;;;;;;;7.40;77.50;;;;;;5043949;27;87067;-47
2024/03/27 01:06:22;;;;;;;;;;;7.40;77.40;;;;;;5044170;28;86990;-46
2024/03/27 01:08:47;;;;;;;;;;;7.40;77.40;;;;;;5039987;28;88366;-46
2024/03/27 01:11:13;;;;;;;;;;;7.40;77.50;;;;;;5040839;27;88443;-46
2024/03/27 01:13:39;;;;;;;;;;;7.40;77.50;;;;;;5040543;28;87024;-47
2024/03/27 01:16:05;;;;;;;;;;;7.40;77.50;;;;;;5039105;28;87657;-46
2024/03/27 01:18:30;;;;;;;;;;;7.40;77.50;;;;;;5042767;28;87018;-47
2024/03/27 01:20:56;;;;;;;;;;;7.40;77.50;;;;;;5038065;28;87015;-46
2024/03/27 01:23:22;;;;;;;;;;;7.40;77.50;;;;;;5045698;27;87766;-47
2024/03/27 01:25:47;;;;;;;;;;;7.40;77.50;;;;;;5045469;28;87951;-45
2024/03/27 01:28:13;;;;;;;;;;;7.40;77.40;;;;;;5045571;28;86954;-47
2024/03/27 01:30:38;;;;;;;;;;;7.40;77.60;;;;;;5042704;28;87742;-47
2024/03/27 01:33:04;;;;;;;;;;;7.40;77.60;;;;;;5045536;28;87812;-48
2024/03/27 01:35:29;;;;;;;;;;;7.40;77.70;;;;;;5046532;27;87948;-47
2024/03/27 01:37:55;;;;;;;;;;;7.40;77.60;;;;;;5044666;28;87435;-46
2024/03/27 01:40:20;;;;;;;;;;;7.40;77.60;;;;;;5046111;27;87561;-48
2024/03/27 01:42:46;;;;;;;;;;;7.40;77.60;;;;;;5047361;28;86913;-46
2024/03/27 01:45:12;;;;;;;;;;;7.40;77.50;;;;;;5044911;27;87904;-47
2024/03/27 01:47:38;;;;;;;;;;;7.30;77.60;;;;;;5044850;27;87062;-46
2024/03/27 01:50:05;;;;;;;;;;;7.40;77.50;;;;;;5047090;27;86666;-46
2024/03/27 01:52:32;;;;;;;;;;;7.40;77.60;;;;;;5046755;27;87093;-47
2024/03/27 01:54:58;;;;;;;;;;;7.40;77.60;;;;;;5046213;27;87741;-46
2024/03/27 01:57:23;;;;;;;;;;;7.40;77.60;;;;;;5042692;27;88363;-46
2024/03/27 01:59:49;;;;;;;;;;;7.40;77.60;;;;;;5043060;27;87017;-47
2024/03/27 02:02:15;;;;;;;;;;;7.40;77.50;;;;;;5043073;27;87981;-47
2024/03/27 02:04:40;;;;;;;;;;;7.40;77.60;;;;;;5043510;27;87433;-46
2024/03/27 02:07:06;;;;;;;;;;;7.40;77.50;;;;;;5049545;28;86971;-47
2024/03/27 02:09:32;;;;;;;;;;;7.40;77.60;;;;;;5044280;27;87749;-48
2024/03/27 02:11:57;;;;;;;;;;;7.40;77.70;;;;;;5046044;27;86997;-46
2024/03/27 02:14:23;;;;;;;;;;;7.40;77.60;;;;;;5045493;27;86888;-45
2024/03/27 02:16:48;;;;;;;;;;;7.40;77.60;;;;;;5044426;28;87593;-47
2024/03/27 02:19:14;;;;;;;;;;;7.40;77.60;;;;;;5043898;28;87067;-46
2024/03/27 02:21:40;;;;;;;;;;;7.40;77.60;;;;;;5043979;28;87956;-47
2024/03/27 02:24:29;;;;;;;;;;;7.30;77.60;;;;;;5044397;28;87432;-47
2024/03/27 02:26:54;;;;;;;;;;;7.40;77.60;;;;;;5042608;28;87135;-46
2024/03/27 02:29:20;;;;;;;;;;;7.30;77.70;;;;;;5049137;28;87018;-47
2024/03/27 02:31:45;;;;;;;;;;;7.40;77.60;;;;;;5045733;27;87170;-45
2024/03/27 02:34:11;;;;;;;;;;;7.40;77.70;;;;;;5042401;28;87596;-48
2024/03/27 02:36:37;;;;;;;;;;;7.30;77.70;;;;;;5044648;28;87372;-47
2024/03/27 02:39:03;;;;;;;;;;;7.30;77.70;;;;;;5044273;27;87114;-47
2024/03/27 02:41:28;;;;;;;;;;;7.40;77.60;;;;;;5045098;28;87085;-46
2024/03/27 02:43:54;;;;;;;;;;;7.40;77.70;;;;;;5044380;27;87567;-47
2024/03/27 02:46:20;;;;;;;;;;;7.40;77.80;;;;;;5045513;27;87823;-48
2024/03/27 02:48:45;;;;;;;;;;;7.30;77.70;;;;;;5044759;27;89168;-47
2024/03/27 02:51:11;;;;;;;;;;;7.40;77.70;;;;;;5048525;28;86870;-46
2024/03/27 02:53:36;;;;;;;;;;;7.30;77.70;;;;;;5045311;28;87072;-46
2024/03/27 02:56:02;;;;;;;;;;;7.30;77.70;;;;;;5041082;27;88564;-46
2024/03/27 02:58:27;;;;;;;;;;;7.40;77.80;;;;;;5044927;27;88206;-47
2024/03/27 03:00:53;;;;;;;;;;;7.30;77.80;;;;;;5045996;28;86902;-47
2024/03/27 03:03:18;;;;;;;;;;;7.30;77.80;;;;;;5045893;27;86874;-47
2024/03/27 03:05:44;;;;;;;;;;;7.30;77.70;;;;;;5045743;27;86967;-48
2024/03/27 03:08:10;;;;;;;;;;;7.30;77.80;;;;;;5045521;27;86941;-47
2024/03/27 03:10:36;;;;;;;;;;;7.30;77.90;;;;;;5040847;27;89609;-48
2024/03/27 03:13:02;;;;;;;;;;;7.30;77.70;;;;;;5046786;27;87616;-47
2024/03/27 03:15:28;;;;;;;;;;;7.30;77.80;;;;;;5042686;28;87598;-47
2024/03/27 03:17:54;;;;;;;;;;;7.30;77.80;;;;;;5043991;28;87365;-47
2024/03/27 03:20:20;;;;;;;;;;;7.30;77.80;;;;;;5044681;27;87868;-47
2024/03/27 03:22:45;;;;;;;;;;;7.30;77.80;;;;;;5044525;27;87403;-47
2024/03/27 03:25:11;;;;;;;;;;;7.30;77.80;;;;;;5041346;28;87054;-46
2024/03/27 03:27:36;;;;;;;;;;;7.30;77.80;;;;;;5045772;27;88054;-47
2024/03/27 03:30:05;;;;;;;;;;;7.30;77.70;;;;;;5041645;27;87515;-47
2024/03/27 03:32:31;;;;;;;;;;;7.30;77.80;;;;;;5040009;28;87011;-47
2024/03/27 03:34:57;;;;;;;;;;;7.30;77.80;;;;;;5045862;28;88148;-46
2024/03/27 03:37:22;;;;;;;;;;;7.30;77.80;;;;;;5044347;27;87912;-46
2024/03/27 03:39:48;;;;;;;;;;;7.30;77.80;;;;;;5042852;28;87040;-45
2024/03/27 03:42:13;;;;;;;;;;;7.30;77.90;;;;;;5040780;28;89068;-47
2024/03/27 03:44:39;;;;;;;;;;;7.30;77.90;;;;;;5044972;27;87019;-47
2024/03/27 03:47:05;;;;;;;;;;;7.30;77.80;;;;;;5042243;27;86960;-47
2024/03/27 03:49:30;;;;;;;;;;;7.30;78.00;;;;;;5042901;27;87150;-48
2024/03/27 03:51:56;;;;;;;;;;;7.30;78.00;;;;;;5043240;27;86967;-46
2024/03/27 03:54:22;;;;;;;;;;;7.30;77.90;;;;;;5038856;28;87389;-47
2024/03/27 03:56:47;;;;;;;;;;;7.30;78.00;;;;;;5046826;28;87713;-46
2024/03/27 03:59:13;;;;;;;;;;;7.30;77.90;;;;;;5043994;28;87911;-47
2024/03/27 04:01:38;;;;;;;;;;;7.30;78.50;;;;;;5044654;28;87518;-47
2024/03/27 04:04:04;;;;;;;;;;;7.30;77.80;;;;;;5039885;28;87020;-47
2024/03/27 04:06:31;;;;;;;;;;;7.30;77.90;;;;;;5042351;27;87871;-47
2024/03/27 04:08:57;;;;;;;;;;;7.30;77.90;;;;;;5043681;27;88013;-47
2024/03/27 04:11:22;;;;;;;;;;;7.30;77.90;;;;;;5040409;27;88009;-45
2024/03/27 04:13:48;;;;;;;;;;;7.30;77.90;;;;;;5042731;27;87642;-49
2024/03/27 04:16:15;;;;;;;;;;;7.30;78.00;;;;;;5047296;28;86679;-47
2024/03/27 04:18:40;;;;;;;;;;;7.30;78.00;;;;;;5043866;27;87306;-47
2024/03/27 04:21:06;;;;;;;;;;;7.30;78.00;;;;;;5042843;27;87744;-47
2024/03/27 04:23:32;;;;;;;;;;;7.30;77.90;;;;;;5042753;27;87842;-48
2024/03/27 04:25:58;;;;;;;;;;;7.30;78.10;;;;;;5043736;27;87683;-46
2024/03/27 04:28:23;;;;;;;;;;;7.30;78.10;;;;;;5044401;27;87448;-47
2024/03/27 04:30:49;;;;;;;;;;;7.30;78.10;;;;;;5039752;27;87294;-45
2024/03/27 04:33:14;;;;;;;;;;;7.30;78.00;;;;;;5044364;28;87200;-46
2024/03/27 04:35:40;;;;;;;;;;;7.30;78.10;;;;;;5043482;27;88733;-46
2024/03/27 04:38:06;;;;;;;;;;;7.30;78.00;;;;;;5046742;28;86985;-47
2024/03/27 04:40:31;;;;;;;;;;;7.30;78.10;;;;;;5041843;27;86726;-47
2024/03/27 04:42:57;;;;;;;;;;;7.30;78.10;;;;;;5042341;27;87339;-47
2024/03/27 04:45:23;;;;;;;;;;;7.30;78.10;;;;;;5043870;27;88210;-46
2024/03/27 04:47:48;;;;;;;;;;;7.20;78.00;;;;;;5037221;28;87932;-46
2024/03/27 04:50:14;;;;;;;;;;;7.30;78.00;;;;;;5040489;27;87051;-47
2024/03/27 04:52:39;;;;;;;;;;;7.30;78.10;;;;;;5043143;28;86970;-47
2024/03/27 04:55:05;;;;;;;;;;;7.30;78.10;;;;;;5041392;28;90228;-46
2024/03/27 04:57:31;;;;;;;;;;;7.30;78.10;;;;;;5044211;27;86972;-47
2024/03/27 04:59:57;;;;;;;;;;;7.20;78.10;;;;;;5049151;27;86917;-47
2024/03/27 05:02:22;;;;;;;;;;;7.20;78.10;;;;;;5044269;28;87199;-46
2024/03/27 05:04:49;;;;;;;;;;;7.30;78.10;;;;;;5047862;27;87180;-47
2024/03/27 05:07:15;;;;;;;;;;;7.20;78.10;;;;;;5046960;28;87669;-47
2024/03/27 05:09:40;;;;;;;;;;;7.30;78.00;;;;;;5046699;28;87064;-47
2024/03/27 05:12:06;;;;;;;;;;;7.20;78.00;;;;;;5046144;27;87927;-46
2024/03/27 05:14:31;;;;;;;;;;;7.20;78.10;;;;;;5043645;27;88877;-46
2024/03/27 05:16:57;;;;;;;;;;;7.20;78.00;;;;;;5044262;28;87000;-46
2024/03/27 05:19:23;;;;;;;;;;;7.20;78.10;;;;;;5043511;28;86951;-47
2024/03/27 05:21:49;;;;;;;;;;;7.20;78.10;;;;;;5046241;28;88620;-46
2024/03/27 05:24:15;;;;;;;;;;;7.20;78.10;;;;;;5046188;27;87072;-47
2024/03/27 05:26:40;;;;;;;;;;;7.20;78.10;;;;;;5046624;28;87682;-46
2024/03/27 05:29:06;;;;;;;;;;;7.20;78.30;;;;;;5044333;27;86342;-46
2024/03/27 05:31:31;;;;;;;;;;;7.20;78.40;;;;;;5046832;27;87037;-47
2024/03/27 05:33:58;;;;;;;;;;;7.20;78.10;;;;;;5043806;28;87578;-47
2024/03/27 05:36:24;;;;;;;;;;;7.20;78.10;;;;;;5046442;28;88618;-47
2024/03/27 05:38:50;;;;;;;;;;;7.20;78.20;;;;;;5043666;28;87750;-46
2024/03/27 05:41:15;;;;;;;;;;;7.20;78.10;;;;;;5042208;27;87807;-47
2024/03/27 05:43:41;;;;;;;;;;;7.20;78.00;;;;;;5049454;28;86935;-47
2024/03/27 05:46:07;;;;;;;;;;;7.20;78.20;;;;;;5045070;27;88491;-50
2024/03/27 05:48:32;;;;;;;;;;;7.20;78.00;;;;;;5044755;27;87458;-47
2024/03/27 05:50:58;;;;;;;;;;;7.20;78.20;;;;;;5045394;27;88219;-47
2024/03/27 05:53:23;;;;;;;;;;;7.20;78.10;;;;;;5041851;28;86645;-46
2024/03/27 05:55:59;;;;;;;;;;;7.20;78.10;;;;;;5047035;27;87209;-46
2024/03/27 05:58:26;;;;;;;;;;;7.20;78.10;;;;;;5042945;28;87007;-47
2024/03/27 06:00:51;;;;;;;;;;;7.20;78.30;;;;;;5042230;27;89522;-48
2024/03/27 06:03:17;;;;;;;;;;;7.20;78.10;;;;;;5046041;28;87432;-46
2024/03/27 06:05:42;;;;;;;;;;;7.20;78.20;;;;;;5047586;28;88862;-47
2024/03/27 06:08:08;;;;;;;;;;;7.20;78.20;;;;;;5046198;27;87052;-47
2024/03/27 06:10:34;;;;;;;;;;;7.20;78.10;;;;;;5042915;28;87920;-47
2024/03/27 06:13:06;;;;;;;;;;;7.20;78.40;;;;;;5043496;28;87467;-47
2024/03/27 06:15:32;;;;;;;;;;;7.20;78.40;;;;;;5046386;27;86906;-48
2024/03/27 06:17:58;;;;;;;;;;;7.30;78.30;;;;;;5046227;28;86821;-47
2024/03/27 06:20:24;;;;;;;;;;;7.20;78.60;;;;;;5045235;27;87331;-45
2024/03/27 06:22:50;;;;;;;;;;;7.20;78.30;;;;;;5046451;28;87222;-46
2024/03/27 06:25:16;;;;;;;;;;;7.20;78.60;;;;;;5045968;28;87829;-47
2024/03/27 06:27:42;;;;;;;;;;;7.30;78.40;;;;;;5042949;28;87043;-47
2024/03/27 06:30:08;;;;;;;;;;;7.30;78.20;;;;;;5045710;27;86995;-47
2024/03/27 06:32:33;;;;;;;;;;;7.30;78.50;;;;;;5040368;27;87659;-46
2024/03/27 06:35:00;;;;;;;;;;;7.30;78.40;;;;;;5045745;27;87004;-47
2024/03/27 06:37:26;;;;;;;;;;;7.30;78.70;;;;;;5043666;27;88103;-46
2024/03/27 06:39:52;;;;;;;;;;;7.30;78.40;;;;;;5040921;27;89205;-48
2024/03/27 06:42:17;;;;;;;;;;;7.30;78.20;;;;;;5045465;28;86350;-50
2024/03/27 06:44:44;;;;;;;;;;;7.30;78.10;;;;;;5041275;27;87330;-47
2024/03/27 06:47:10;;;;;;;;;;;7.30;78.50;;;;;;5044666;27;88870;-47
2024/03/27 06:49:36;;;;;;;;;;;7.30;78.30;;;;;;5042617;27;87973;-47
2024/03/27 06:52:01;;;;;;;;;;;7.20;78.20;;;;;;5042683;27;87898;-47
2024/03/27 06:54:27;;;;;;;;;;;7.30;78.50;;;;;;5044254;27;86981;-47
2024/03/27 06:56:52;;;;;;;;;;;7.30;78.60;;;;;;5043478;28;87664;-47
2024/03/27 06:59:18;;;;;;;;;;;7.30;78.50;;;;;;5042670;27;88265;-48
2024/03/27 07:01:43;;;;;;;;;;;7.30;78.50;;;;;;5042471;28;87610;-48
2024/03/27 07:04:09;;;;;;;;;;;7.30;78.50;;;;;;5044413;27;87651;-46
2024/03/27 07:06:35;;;;;;;;;;;7.30;78.50;;;;;;5045164;28;86599;-49
2024/03/27 07:09:00;;;;;;;;;;;7.30;78.50;;;;;;5046143;27;88637;-50
2024/03/27 07:11:26;;;;;;;;;;;7.30;78.50;;;;;;5045101;27;87701;-48
2024/03/27 07:13:52;;;;;;;;;;;7.30;78.50;;;;;;5040957;28;88258;-50
2024/03/27 07:16:17;;;;;;;;;;;7.30;78.50;;;;;;5044447;28;86962;-47
2024/03/27 07:18:44;;;;;;;;;;;7.30;78.50;;;;;;5042817;27;90262;-48
2024/03/27 07:21:10;;;;;;;;;;;7.30;78.50;;;;;;5042972;27;87425;-48
2024/03/27 07:23:35;;;;;;;;;;;7.40;78.60;;;;;;5044895;28;87017;-47
2024/03/27 07:26:08;;;;;;;;;;;7.40;78.60;;;;;;5044998;27;87438;-47
2024/03/27 07:28:33;;;;;;;;;;;7.40;78.60;;;;;;5039280;27;87111;-47
2024/03/27 07:30:59;;;;;;;;;;;7.40;78.60;;;;;;5042796;27;87293;-47
2024/03/27 07:33:25;;;;;;;;;;;7.50;78.60;;;;;;5044361;27;86969;-48
2024/03/27 07:35:51;;;;;;;;;;;7.40;78.70;;;;;;5044349;28;86957;-48
2024/03/27 07:38:16;;;;;;;;;;;7.50;78.60;;;;;;5043184;27;89597;-47
2024/03/27 07:40:42;;;;;;;;;;;7.50;78.60;;;;;;5044139;27;87103;-48
2024/03/27 07:43:08;;;;;;;;;;;7.50;78.60;;;;;;5043582;27;86988;-48
2024/03/27 07:45:36;;;;;;;;;;;7.50;78.60;;;;;;5043160;27;88877;-47
2024/03/27 07:48:02;;;;;;;;;;;7.60;78.70;;;;;;5044243;28;87104;-47
2024/03/27 07:50:27;;;;;;;;;;;7.60;78.70;;;;;;5043179;27;87221;-48
2024/03/27 07:52:53;;;;;;;;;;;7.60;78.80;;;;;;5045361;28;87727;-47
2024/03/27 07:55:18;;;;;;;;;;;7.60;78.70;;;;;;5042619;27;86803;-47
2024/03/27 07:57:45;;;;;;;;;;;7.60;78.80;;;;;;5040876;28;87567;-46
2024/03/27 08:00:11;;;;;;;;;;;7.60;78.70;;;;;;5043064;28;87475;-48
2024/03/27 08:02:37;;;;;;;;;;;7.60;79.20;;;;;;5040284;28;87906;-46
2024/03/27 08:05:05;;;;;;;;;;;7.60;78.80;;;;;;5041054;28;87581;-47
2024/03/27 08:07:31;;;;;;;;;;;7.70;79.00;;;;;;5044492;27;86926;-46
2024/03/27 08:09:57;;;;;;;;;;;7.70;79.10;;;;;;5043052;27;89682;-47
2024/03/27 08:12:22;;;;;;;;;;;7.70;79.00;;;;;;5043052;28;87868;-47
2024/03/27 08:14:48;;;;;;;;;;;7.70;79.20;;;;;;5045869;27;87365;-46
2024/03/27 08:17:14;;;;;;;;;;;7.70;79.40;;;;;;5038315;28;86858;-47
2024/03/27 08:19:40;;;;;;;;;;;7.70;79.50;;;;;;5043630;28;87242;-47
2024/03/27 08:22:06;;;;;;;;;;;7.70;79.60;;;;;;5049764;27;87686;-48
2024/03/27 08:24:31;;;;;;;;;;;7.70;79.90;;;;;;5040035;28;87350;-48
2024/03/27 08:26:57;;;;;;;;;;;7.70;79.80;;;;;;5043642;27;88615;-47
2024/03/27 08:29:22;;;;;;;;;;;7.80;79.70;;;;;;5044431;27;87333;-47
2024/03/27 08:31:48;;;;;;;;;;;7.70;80.00;;;;;;5042856;27;87363;-46
2024/03/27 08:34:14;;;;;;;;;;;7.70;80.00;;;;;;5049690;27;87215;-47
2024/03/27 08:36:39;;;;;;;;;;;7.70;80.10;;;;;;5044459;28;89080;-47
2024/03/27 08:39:07;;;;;;;;;;;7.80;80.20;;;;;;5046176;27;86872;-48
2024/03/27 08:41:32;;;;;;;;;;;7.80;80.30;;;;;;5044790;28;88000;-47
2024/03/27 08:43:58;;;;;;;;;;;7.80;80.50;;;;;;5048109;27;86667;-47
2024/03/27 08:46:24;;;;;;;;;;;7.80;80.20;;;;;;5045443;27;87085;-47
2024/03/27 08:48:50;;;;;;;;;;;7.80;80.50;;;;;;5046550;27;87729;-47
2024/03/27 08:51:16;;;;;;;;;;;7.80;80.70;;;;;;5044601;27;87976;-46
2024/03/27 08:53:42;;;;;;;;;;;7.80;80.40;;;;;;5043755;28;86969;-45
2024/03/27 08:56:07;;;;;;;;;;;7.80;80.60;;;;;;5049231;28;87741;-47
2024/03/27 08:58:33;;;;;;;;;;;7.80;81.10;;;;;;5045508;28;87015;-46
2024/03/27 09:00:58;;;;;;;;;;;7.90;80.70;;;;;;5046139;28;86973;-47
2024/03/27 09:03:24;;;;;;;;;;;7.90;80.80;;;;;;5041273;28;87581;-47
2024/03/27 09:05:50;;;;;;;;;;;7.90;80.70;;;;;;5044894;27;87098;-47
2024/03/27 09:08:15;;;;;;;;;;;7.90;80.80;;;;;;5045319;28;86861;-47
2024/03/27 09:10:41;;;;;;;;;;;7.90;80.80;;;;;;5042277;27;89115;-47
2024/03/27 09:13:06;;;;;;;;;;;7.90;81.10;;;;;;5044382;28;87384;-47
2024/03/27 09:15:32;;;;;;;;;;;7.90;81.00;;;;;;5046558;28;87854;-47
2024/03/27 09:17:57;;;;;;;;;;;7.90;81.20;;;;;;5049096;27;87700;-47
2024/03/27 09:20:23;;;;;;;;;;;7.90;81.40;;;;;;5041878;28;86846;-48
2024/03/27 09:22:48;;;;;;;;;;;7.90;81.60;;;;;;5044933;28;87970;-47
2024/03/27 09:25:14;;;;;;;;;;;8.00;81.90;;;;;;5045378;27;87626;-47
2024/03/27 09:27:40;;;;;;;;;;;8.00;81.90;;;;;;5045233;27;88376;-47
2024/03/27 09:30:07;;;;;;;;;;;8.00;82.00;;;;;;5046586;28;87748;-47
2024/03/27 09:32:32;;;;;;;;;;;8.00;81.80;;;;;;5046985;27;86740;-47
2024/03/27 09:34:58;;;;;;;;;;;8.00;81.90;;;;;;5046255;28;86990;-47
2024/03/27 09:37:23;;;;;;;;;;;8.00;81.90;;;;;;5043313;28;88320;-49
2024/03/27 09:39:49;;;;;;;;;;;8.00;81.70;;;;;;5045690;28;88166;-49
2024/03/27 09:42:15;;;;;;;;;;;8.00;82.50;;;;;;5044555;28;88066;-48
2024/03/27 09:44:41;;;;;;;;;;;8.00;82.50;;;;;;5046782;27;87032;-48
2024/03/27 09:47:08;;;;;;;;;;;8.10;82.70;;;;;;5043379;27;87003;-47
2024/03/27 09:49:34;;;;;;;;;;;8.10;82.50;;;;;;5046083;27;87331;-48
2024/03/27 09:52:01;;;;;;;;;;;8.10;82.80;;;;;;5046474;27;87492;-48
2024/03/27 09:54:28;;;;;;;;;;;8.10;82.60;;;;;;5044244;28;87015;-48
2024/03/27 09:56:54;;;;;;;;;;;8.10;82.70;;;;;;5045752;27;87986;-48
2024/03/27 09:59:19;;;;;;;;;;;8.10;83.00;;;;;;5046470;28;87059;-47
2024/03/27 10:01:45;;;;;;;;;;;8.10;83.10;;;;;;5048981;27;87325;-47
2024/03/27 10:04:10;;;;;;;;;;;8.10;83.00;;;;;;5045277;27;88565;-46
2024/03/27 10:06:36;;;;;;;;;;;8.10;83.20;;;;;;5045696;28;87921;-47
2024/03/27 10:09:03;;;;;;;;;;;8.20;83.40;;;;;;5044908;28;88194;-47
2024/03/27 10:11:28;;;;;;;;;;;8.20;83.50;;;;;;5042816;27;87840;-47
2024/03/27 10:13:54;;;;;;;;;;;8.20;83.40;;;;;;5043157;27;87403;-48
2024/03/27 10:16:20;;;;;;;;;;;8.20;83.30;;;;;;5043728;27;88502;-48
2024/03/27 10:18:46;;;;;;;;;;;8.30;83.40;;;;;;5046460;27;86837;-48
2024/03/27 10:21:11;;;;;;;;;;;8.20;83.40;;;;;;5044884;27;88774;-50
2024/03/27 10:23:37;;;;;;;;;;;8.20;83.60;;;;;;5043324;28;87783;-48
2024/03/27 10:26:03;;;;;;;;;;;8.20;83.60;;;;;;5045835;27;86918;-49
2024/03/27 10:28:34;;;;;;;;;;;8.30;83.90;;;;;;5048387;27;91158;-49
2024/03/27 10:31:01;;;;;;;;;;;8.30;83.80;;;;;;5043405;27;87717;-47
2024/03/27 10:33:28;;;;;;;;;;;8.30;84.00;;;;;;5046403;28;87477;-47
2024/03/27 10:35:53;;;;;;;;;;;8.30;84.00;;;;;;5043380;27;87417;-47
2024/03/27 10:38:19;;;;;;;;;;;8.30;83.80;;;;;;5043715;27;86932;-47
2024/03/27 10:40:47;;;;;;;;;;;8.30;84.20;;;;;;5046189;27;87711;-47
2024/03/27 10:43:29;;;;;;;;;;;8.30;84.00;;;;;;5044614;28;87477;-46
2024/03/27 10:45:55;;;;;;;;;;;8.40;84.20;;;;;;5043497;28;86977;-48
2024/03/27 10:48:21;;;;;;;;;;;8.40;84.10;;;;;;5041271;27;87576;-47
2024/03/27 10:50:47;;;;;;;;;;;8.40;84.00;;;;;;5045867;27;86966;-50
2024/03/27 10:53:13;;;;;;;;;;;8.40;84.10;;;;;;5045064;27;88798;-46
2024/03/27 10:55:39;;;;;;;;;;;8.40;84.40;;;;;;5041414;27;87456;-48
2024/03/27 10:58:06;;;;;;;;;;;8.50;84.30;;;;;;5043615;27;87057;-47
2024/03/27 11:00:32;;;;;;;;;;;8.40;84.50;;;;;;5045075;27;86932;-48
2024/03/27 11:02:57;;;;;;;;;;;8.40;84.50;;;;;;5043584;27;87512;-47
2024/03/27 11:05:26;;;;;;;;;;;8.50;84.20;;;;;;5047714;27;87196;-47
2024/03/27 11:07:53;;;;;;;;;;;8.50;84.20;;;;;;5042381;27;87708;-47
2024/03/27 11:10:22;;;;;;;;;;;8.50;84.30;;;;;;5042532;27;86350;-47
2024/03/27 11:12:48;;;;;;;;;;;8.50;84.30;;;;;;5042939;27;86960;-48
2024/03/27 11:15:17;;;;;;;;;;;8.50;84.30;;;;;;5041075;28;87465;-47
2024/03/27 11:17:49;;;;;;;;;;;8.60;84.40;;;;;;5040275;28;87947;-47
2024/03/27 11:20:15;;;;;;;;;;;8.60;84.40;;;;;;5041772;28;89111;-47
2024/03/27 11:22:45;;;;;;;;;;;8.60;84.90;;;;;;5042214;27;87622;-49
2024/03/27 11:25:11;;;;;;;;;;;8.60;84.70;;;;;;5041318;28;87258;-48
2024/03/27 11:27:37;;;;;;;;;;;8.70;84.80;;;;;;5045199;28;87848;-48
2024/03/27 11:30:03;;;;;;;;;;;8.60;84.70;;;;;;5044457;27;87766;-47
2024/03/27 11:32:32;;;;;;;;;;;8.70;85.30;;;;;;5044666;27;88745;-47
2024/03/27 11:34:58;;;;;;;;;;;8.70;85.20;;;;;;5044567;28;86917;-48
2024/03/27 11:37:24;;;;;;;;;;;8.70;85.30;;;;;;5042786;27;87049;-48
2024/03/27 11:39:50;;;;;;;;;;;8.70;85.20;;;;;;5042185;28;87035;-48
2024/03/27 11:42:17;;;;;;;;;;;8.70;85.30;;;;;;5039299;28;89181;-46
2024/03/27 11:44:42;;;;;;;;;;;8.80;85.60;;;;;;5040918;28;87100;-48
2024/03/27 11:47:08;;;;;;;;;;;8.80;85.30;;;;;;5040231;27;88408;-47
2024/03/27 11:49:34;;;;;;;;;;;8.80;85.60;;;;;;5045891;27;87367;-47
2024/03/27 11:52:00;;;;;;;;;;;8.80;85.50;;;;;;5043960;28;86883;-47
2024/03/27 11:54:28;;;;;;;;;;;8.80;85.50;;;;;;5039319;27;87436;-47
2024/03/27 11:56:54;;;;;;;;;;;8.80;85.70;;;;;;5039832;28;87081;-48
2024/03/27 11:59:20;;;;;;;;;;;8.80;85.90;;;;;;5044088;27;87900;-49
2024/03/27 12:01:46;;;;;;;;;;;8.90;86.10;;;;;;5043878;27;89055;-48
2024/03/27 12:04:12;;;;;;;;;;;8.90;86.10;;;;;;5044390;28;86997;-49
2024/03/27 12:06:39;;;;;;;;;;;8.90;86.10;;;;;;5042485;27;87843;-48
2024/03/27 12:09:04;;;;;;;;;;;8.90;86.30;;;;;;5042355;27;86994;-48
2024/03/27 12:11:30;;;;;;;;;;;9.00;86.30;;;;;;5041953;28;87731;-48
2024/03/27 12:13:56;;;;;;;;;;;8.90;86.40;;;;;;5042416;27;88721;-48
2024/03/27 12:16:21;;;;;;;;;;;9.00;86.40;;;;;;5041379;28;87043;-46
2024/03/27 12:18:47;;;;;;;;;;;9.10;86.20;;;;;;5039721;28;87410;-47
2024/03/27 12:21:13;;;;;;;;;;;9.10;86.00;;;;;;5040149;28;87719;-47
2024/03/27 12:23:43;;;;;;;;;;;9.10;86.10;;;;;;5042063;27;86095;-47
2024/03/27 12:26:15;;;;;;;;;;;9.20;86.30;;;;;;5042276;28;87310;-46
2024/03/27 12:28:45;;;;;;;;;;;9.20;86.20;;;;;;5040312;28;87173;-47
2024/03/27 12:31:10;;;;;;;;;;;9.20;86.10;;;;;;5045736;28;88194;-47
2024/03/27 12:33:36;;;;;;;;;;;9.20;86.40;;;;;;5042063;27;87429;-48
2024/03/27 12:36:02;;;;;;;;;;;9.20;86.50;;;;;;5043753;27;86861;-46
2024/03/27 12:38:28;;;;;;;;;;;9.30;86.50;;;;;;5042748;27;87849;-47
2024/03/27 12:40:54;;;;;;;;;;;9.30;86.70;;;;;;5038054;28;87677;-46
2024/03/27 12:43:20;;;;;;;;;;;9.20;86.70;;;;;;5040218;27;86976;-48
2024/03/27 12:45:46;;;;;;;;;;;9.30;86.90;;;;;;5040709;28;87446;-47
2024/03/27 12:48:17;;;;;;;;;;;9.30;86.80;;;;;;5040489;28;88265;-47
2024/03/27 12:50:43;;;;;;;;;;;9.30;87.40;;;;;;5044152;28;87840;-47
2024/03/27 12:53:08;;;;;;;;;;;9.30;87.30;;;;;;5043326;27;87066;-47
2024/03/27 12:55:34;;;;;;;;;;;9.40;87.60;;;;;;5041138;28;87968;-47
2024/03/27 12:57:59;;;;;;;;;;;9.40;87.40;;;;;;5042350;27;88834;-47
2024/03/27 13:00:25;;;;;;;;;;;9.40;87.70;;;;;;5043289;28;87639;-47
2024/03/27 13:02:50;;;;;;;;;;;9.40;87.70;;;;;;5041396;27;86995;-47
2024/03/27 13:05:16;;;;;;;;;;;9.40;87.70;;;;;;5040348;28;87731;-48
2024/03/27 13:07:42;;;;;;;;;;;9.50;87.60;;;;;;5042672;28;88227;-47
2024/03/27 13:10:07;;;;;;;;;;;9.50;87.60;;;;;;5038381;28;87485;-48
2024/03/27 13:12:33;;;;;;;;;;;9.50;88.00;;;;;;5042554;27;86206;-46
2024/03/27 13:14:58;;;;;;;;;;;9.60;87.70;;;;;;5045551;27;87650;-47
2024/03/27 13:17:24;;;;;;;;;;;9.70;87.60;;;;;;5038807;28;87044;-48
2024/03/27 13:19:50;;;;;;;;;;;9.60;87.10;;;;;;5042870;27;90801;-46
2024/03/27 13:22:15;;;;;;;;;;;9.70;88.10;;;;;;5045425;28;86944;-47
2024/03/27 13:24:41;;;;;;;;;;;9.60;87.30;;;;;;5046537;28;86918;-46
2024/03/27 13:27:07;;;;;;;;;;;9.70;87.70;;;;;;5044593;28;87380;-48
2024/03/27 13:29:33;;;;;;;;;;;9.70;87.80;;;;;;5045611;27;87122;-47
2024/03/27 13:31:58;;;;;;;;;;;9.70;87.40;;;;;;5045685;28;88005;-46
2024/03/27 13:34:28;;;;;;;;;;;9.80;87.70;;;;;;5045530;27;88070;-46
2024/03/27 13:36:54;;;;;;;;;;;9.80;87.30;;;;;;5046837;28;86413;-47
2024/03/27 13:39:20;;;;;;;;;;;9.80;87.40;;;;;;5042564;28;88691;-48
2024/03/27 13:41:46;;;;;;;;;;;9.80;87.40;;;;;;5041918;28;87083;-47
2024/03/27 13:44:11;;;;;;;;;;;9.80;87.90;;;;;;5045466;28;88507;-48
2024/03/27 13:46:37;;;;;;;;;;;9.90;87.70;;;;;;5044957;28;87644;-47
2024/03/27 13:49:02;;;;;;;;;;;9.90;87.80;;;;;;5045106;28;87001;-47
2024/03/27 13:51:28;;;;;;;;;;;9.90;87.90;;;;;;5044234;28;87000;-47
2024/03/27 13:53:54;;;;;;;;;;;10.00;87.80;;;;;;5044032;28;87567;-46
2024/03/27 13:56:21;;;;;;;;;;;10.00;88.20;;;;;;5046073;27;87775;-48
2024/03/27 13:58:47;;;;;;;;;;;10.10;88.20;;;;;;5049237;27;88130;-47
2024/03/27 14:01:13;;;;;;;;;;;10.00;87.90;;;;;;5044007;28;86230;-47
2024/03/27 14:03:38;;;;;;;;;;;10.00;88.10;;;;;;5045993;27;86836;-47
2024/03/27 14:06:04;;;;;;;;;;;10.00;88.30;;;;;;5045274;28;87548;-46
2024/03/27 14:08:30;;;;;;;;;;;10.10;88.40;;;;;;5045076;27;88243;-46
2024/03/27 14:10:55;;;;;;;;;;;10.10;88.00;;;;;;5045306;28;87764;-47
2024/03/27 14:13:21;;;;;;;;;;;10.20;88.10;;;;;;5045015;28;88014;-48
2024/03/27 14:15:46;;;;;;;;;;;10.20;88.10;;;;;;5045596;28;86882;-47
2024/03/27 14:18:12;;;;;;;;;;;10.20;88.20;;;;;;5045867;27;88438;-47
2024/03/27 14:20:37;;;;;;;;;;;10.20;88.10;;;;;;5047949;28;87195;-47